Terminal Aerodrome Forecast
Issued by NWS La Crosse, WI

Home | Current Version | Previous Version | Text Only | Print | Product List | Glossary On
Versions: 1 2 3 4 5 6 7 8 9 10 11 12 13 14 15 16 17 18 19 20 21 22 23 24 25 26
000
FTUS43 KARX 231136 AAA
TAFLSE
TAF AMD
KLSE 231136Z 2312/2412 15008KT P6SM OVC070
     FM232000 16011G23KT P6SM VCSH OVC035
     FM240100 17008KT P6SM OVC015 WS020/21040KT
     FM240900 16005KT 3SM -RA OVC010=

USA.gov is the U.S. government's official web portal to all federal, state and local government web resources and services.